Terminal Aerodrome Forecast
Issued by NWS

Home | Current Version | Previous Version | Text Only | Print | Product List | Glossary On
Versions: 1 2 3 4 5 6 7 8 9 10 11 12 13 14 15 16 17 18 19 20 21 22 23 24 25 26 27 28 29 30 31 32 33 34 35 36 37 38 39
000
FTUS42 KRAH 021124
TAFRWI
TAF
KRWI 021124Z 0212/0312 00000KT P6SM VCSH BKN120
      TEMPO 0212/0213 5SM BR
     FM021400 27006KT P6SM FEW035 OVC100
      TEMPO 0218/0221 3SM -TSRA BR BKN025CB
     FM022200 35005KT P6SM VCTS SCT030CB BKN060
     FM030200 04005KT 5SM BR VCSH SCT025 OVC060=

USA.gov is the U.S. government's official web portal to all federal, state and local government web resources and services.